Time;durP1;ratioP1;P1;durP2;ratioP2;P2;SDS_P1;SDS_P2;PMS_P1;PMS_P2;Temp;Humidity;BMP_temperature;BMP_pressure;BME280_temperature;BME280_humidity;BME280_pressure;Samples;Min_cycle;Max_cycle;Signal;HPM_P1;HPM_P2
2022/09/03 00:01:42;;;;;;;2.65;1.83;;;;;;;6.56;68.35;100465.53;4797797;29;20048;-79
2022/09/03 00:04:19;;;;;;;5.40;2.33;;;;;;;6.36;68.51;100441.88;4799877;29;20504;-77
2022/09/03 00:07:02;;;;;;;5.07;2.20;;;;;;;6.45;68.05;100481.69;4791648;29;20407;-77
2022/09/03 00:09:39;;;;;;;8.73;2.20;;;;;;;6.36;68.66;100484.13;4788502;29;20858;-79
2022/09/03 00:12:13;;;;;;;3.70;2.22;;;;;;;6.38;68.82;100502.25;4789139;29;20511;-79
2022/09/03 00:14:46;;;;;;;5.35;2.72;;;;;;;6.35;68.60;100502.19;4788672;29;20039;-78
2022/09/03 00:17:19;;;;;;;4.43;2.55;;;;;;;6.28;69.00;100489.16;4787306;29;20169;-79
2022/09/03 00:20:00;;;;;;;5.25;2.70;;;;;;;6.30;68.66;100500.38;4788638;29;20047;-80
2022/09/03 00:22:33;;;;;;;5.07;2.28;;;;;;;6.18;69.02;100505.31;4787604;29;20050;-81
2022/09/03 00:25:04;;;;;;;3.58;2.30;;;;;;;6.21;68.77;100518.28;4789034;29;20076;-80
2022/09/03 00:27:36;;;;;;;3.70;2.80;;;;;;;6.06;68.96;100505.06;4793342;29;20046;-80
2022/09/03 00:30:12;;;;;;;6.28;2.47;;;;;;;6.12;69.45;100511.22;4788553;29;20053;-79
2022/09/03 00:32:53;;;;;;;3.08;2.38;;;;;;;6.11;69.16;100519.81;4770800;29;20063;-78
2022/09/03 00:35:36;;;;;;;4.72;2.50;;;;;;;6.10;69.06;100524.94;4787919;29;20043;-79
2022/09/03 00:38:02;;;;;;;7.65;2.53;;;;;;;5.99;69.49;100516.94;4788637;29;20061;-77
2022/09/03 00:40:56;;;;;;;3.55;2.20;;;;;;;6.06;69.41;100538.66;4788972;29;20179;-79
2022/09/03 00:43:25;;;;;;;3.10;2.10;;;;;;;6.02;69.51;100530.84;4771517;29;20155;-78
2022/09/03 00:46:18;;;;;;;4.05;2.50;;;;;;;5.99;70.27;100533.31;4786453;29;20051;-78
2022/09/03 00:48:56;;;;;;;3.88;2.35;;;;;;;5.98;70.15;100536.75;4773143;29;20070;-81
2022/09/03 00:51:43;;;;;;;4.85;2.40;;;;;;;5.94;70.33;100527.16;4785317;29;20523;-79
2022/09/03 00:54:28;;;;;;;4.38;2.28;;;;;;;5.94;70.46;100537.50;4773816;29;20965;-81
2022/09/03 00:57:29;;;;;;;3.38;2.60;;;;;;;5.91;69.86;100542.59;4787108;29;20127;-79
2022/09/03 01:00:09;;;;;;;4.43;2.65;;;;;;;5.88;70.02;100550.28;4786700;29;20047;-80
2022/09/03 01:02:56;;;;;;;8.20;2.40;;;;;;;5.89;70.25;100544.28;4779013;29;20051;-78
2022/09/03 01:06:04;;;;;;;5.70;2.40;;;;;;;5.84;71.29;100545.91;4789439;29;20091;-78
2022/09/03 01:08:53;;;;;;;3.55;1.98;;;;;;;5.85;70.30;100539.88;4776697;29;20055;-79
2022/09/03 01:11:45;;;;;;;5.53;2.47;;;;;;;5.87;70.79;100539.09;4760691;29;20461;-79
2022/09/03 01:14:30;;;;;;;6.13;2.60;;;;;;;5.90;70.83;100546.03;4788785;29;20043;-79
2022/09/03 01:17:11;;;;;;;5.38;2.55;;;;;;;5.94;71.37;100534.91;4771127;29;20602;-78
2022/09/03 01:19:59;;;;;;;5.57;3.10;;;;;;;5.99;71.27;100540.19;4787317;29;20516;-80
2022/09/03 01:23:02;;;;;;;4.38;2.67;;;;;;;6.05;71.06;100536.91;4756926;29;20053;-78
2022/09/03 01:25:32;;;;;;;6.47;2.83;;;;;;;6.10;70.97;100543.03;4771878;29;20074;-79
2022/09/03 01:28:18;;;;;;;5.00;2.85;;;;;;;6.12;70.80;100546.53;4758396;29;20154;-79
2022/09/03 01:30:54;;;;;;;5.78;2.70;;;;;;;6.01;71.28;100528.19;4789674;29;20096;-78
2022/09/03 01:33:39;;;;;;;5.00;2.50;;;;;;;5.99;71.21;100525.56;4776826;29;20043;-78
2022/09/03 01:36:08;;;;;;;4.13;2.90;;;;;;;6.08;70.88;100547.28;4779130;29;20043;-80
2022/09/03 01:38:52;;;;;;;4.30;2.78;;;;;;;6.08;71.55;100557.63;4772054;29;20051;-78
2022/09/03 01:45:20;;;;;;;5.80;2.50;;;;;;;5.96;71.76;100551.34;4788326;29;20079;-78
2022/09/03 01:47:52;;;;;;;5.47;2.53;;;;;;;5.98;71.52;100560.00;4782614;29;20065;-79
2022/09/03 01:50:33;;;;;;;;;;;;;;;5.93;71.28;100561.59;4771154;29;20043;-77
2022/09/03 01:53:31;;;;;;;11.20;2.70;;;;;;;5.91;71.76;100565.00;4771127;29;19928;-78
2022/09/03 01:56:19;;;;;;;6.82;2.72;;;;;;;5.85;71.72;100574.34;4791835;29;20054;-78
2022/09/03 01:59:01;;;;;;;6.18;2.63;;;;;;;5.70;71.71;100551.63;4778722;29;20147;-79
2022/09/03 02:02:00;;;;;;;7.68;2.47;;;;;;;5.70;71.67;100564.53;4786828;29;20539;-79
2022/09/03 02:04:27;;;;;;;5.28;2.85;;;;;;;5.75;72.07;100582.69;4770469;29;20150;-79
2022/09/03 02:06:56;;;;;;;12.02;2.42;;;;;;;5.67;71.90;100585.09;4756627;29;20415;-76
2022/09/03 02:09:23;;;;;;;4.47;2.35;;;;;;;5.50;71.91;100561.50;4769275;29;20049;-78
2022/09/03 02:11:59;;;;;;;3.67;2.63;;;;;;;5.60;71.65;100580.66;4754577;29;20083;-78
2022/09/03 02:14:28;;;;;;;3.15;2.22;;;;;;;5.51;71.93;100576.16;4786136;29;20769;-78
2022/09/03 02:16:56;;;;;;;3.72;2.40;;;;;;;5.60;71.07;100597.84;4787707;29;20074;-78
2022/09/03 02:19:23;;;;;;;2.90;2.20;;;;;;;5.60;71.60;100603.00;4783934;29;20055;-78
2022/09/03 02:21:52;;;;;;;7.45;2.70;;;;;;;5.43;71.96;100583.69;4785431;29;20047;-79
2022/09/03 02:24:18;;;;;;;5.35;2.40;;;;;;;5.58;71.94;100610.72;4786233;29;20058;-79
2022/09/03 02:26:45;;;;;;;3.25;2.50;;;;;;;5.52;71.67;100607.97;4770473;29;20500;-78
2022/09/03 02:29:13;;;;;;;5.80;2.42;;;;;;;5.49;71.46;100602.75;4753745;29;20047;-79
2022/09/03 02:31:39;;;;;;;3.60;2.33;;;;;;;5.39;71.41;100588.72;4786212;29;20441;-79
2022/09/03 02:34:05;;;;;;;3.70;2.13;;;;;;;5.39;72.13;100592.22;4787623;29;20428;-78
2022/09/03 02:36:35;;;;;;;3.70;2.30;;;;;;;5.47;71.61;100601.81;4777908;29;20058;-79
2022/09/03 02:39:01;;;;;;;5.38;2.35;;;;;;;5.37;72.11;100582.66;4769666;29;20055;-78
2022/09/03 02:41:27;;;;;;;5.28;2.42;;;;;;;5.49;72.89;100613.97;4788480;29;20051;-80
2022/09/03 02:44:07;;;;;;;6.47;2.42;;;;;;;5.51;72.16;100616.56;4769677;29;20051;-80
2022/09/03 02:46:56;;;;;;;3.60;2.55;;;;;;;5.50;72.24;100607.06;4771304;29;20047;-78
2022/09/03 02:49:22;;;;;;;5.30;2.50;;;;;;;5.51;72.27;100608.81;4783837;29;20197;-80
2022/09/03 02:51:48;;;;;;;4.88;2.40;;;;;;;5.55;72.32;100621.84;4784437;29;20094;-78
2022/09/03 02:54:14;;;;;;;5.22;2.83;;;;;;;5.48;72.30;100606.16;4769367;29;20496;-78
2022/09/03 02:56:40;;;;;;;4.93;3.05;;;;;;;5.57;72.34;100619.31;4772065;29;20150;-77
2022/09/03 02:59:08;;;;;;;3.28;2.25;;;;;;;5.58;72.38;100618.47;4794487;29;20047;-78
2022/09/03 03:01:35;;;;;;;3.10;2.10;;;;;;;5.58;71.79;100615.88;4753999;29;1370615;-80
2022/09/03 03:04:02;;;;;;;5.00;2.30;;;;;;;5.63;72.28;100623.75;4770565;29;20059;-78
2022/09/03 03:06:28;;;;;;;5.07;2.70;;;;;;;5.62;72.45;100617.72;4788956;29;20046;-78
2022/09/03 03:08:56;;;;;;;13.20;4.85;;;;;;;5.77;72.71;100624.06;4784482;29;20051;-79
2022/09/03 03:11:24;;;;;;;4.88;2.70;;;;;;;5.77;72.24;100626.66;4784664;29;20063;-79
2022/09/03 03:13:50;;;;;;;4.93;2.83;;;;;;;5.87;72.29;100632.09;4799708;29;20051;-79
2022/09/03 03:16:16;;;;;;;4.63;2.80;;;;;;;5.88;72.70;100630.34;4784561;29;20050;-79
2022/09/03 03:18:45;;;;;;;6.15;2.50;;;;;;;5.88;71.97;100617.44;4785915;29;20050;-79
2022/09/03 03:21:14;;;;;;;7.03;2.38;;;;;;;6.10;72.29;100643.81;4785192;29;20043;-78
2022/09/03 03:23:41;;;;;;;4.40;2.60;;;;;;;6.10;72.25;100638.63;4784913;29;20085;-79
2022/09/03 03:26:10;;;;;;;6.35;2.97;;;;;;;6.18;71.92;100642.28;4772982;29;20097;-79
2022/09/03 03:28:36;;;;;;;8.15;2.58;;;;;;;6.26;71.81;100648.50;4790190;29;20047;-78
2022/09/03 03:31:06;;;;;;;15.43;3.67;;;;;;;6.27;72.09;100632.16;4781131;29;20382;-78
2022/09/03 03:33:33;;;;;;;7.45;3.00;;;;;;;6.41;71.99;100637.59;4804608;29;20073;-78
2022/09/03 03:36:06;;;;;;;4.32;2.60;;;;;;;6.42;71.94;100635.91;4803146;29;20062;-78
2022/09/03 03:38:33;;;;;;;4.88;2.40;;;;;;;6.45;72.25;100633.41;4784855;29;20078;-78
2022/09/03 03:41:08;;;;;;;8.48;2.75;;;;;;;6.50;72.42;100621.44;4768144;29;20051;-79
2022/09/03 03:43:34;;;;;;;4.63;2.65;;;;;;;6.79;72.12;100649.59;4792288;29;20039;-79
2022/09/03 03:46:01;;;;;;;6.35;2.80;;;;;;;6.95;71.78;100655.09;4785919;29;20113;-79
2022/09/03 03:48:27;;;;;;;4.78;3.13;;;;;;;7.00;71.72;100643.97;4784333;29;20047;-79
2022/09/03 03:50:53;;;;;;;6.68;3.28;;;;;;;7.13;71.27;100644.19;4784177;29;20047;-79
2022/09/03 03:53:19;;;;;;;5.30;2.60;;;;;;;7.20;71.82;100657.28;4785858;29;20047;-79
2022/09/03 03:56:00;;;;;;;7.38;2.88;;;;;;;7.29;71.36;100647.97;4786277;29;20400;-79
2022/09/03 03:58:28;;;;;;;5.20;2.75;;;;;;;7.41;71.46;100653.34;4790056;29;20461;-78
2022/09/03 04:00:54;;;;;;;6.05;2.78;;;;;;;7.51;71.41;100639.72;4787484;29;20516;-80
2022/09/03 04:03:20;;;;;;;5.68;3.00;;;;;;;7.65;70.87;100644.25;4771896;29;20104;-79
2022/09/03 04:05:57;;;;;;;4.80;2.58;;;;;;;7.87;70.82;100665.31;4773818;29;20088;-78
2022/09/03 04:08:23;;;;;;;7.40;3.28;;;;;;;8.01;70.79;100666.44;4758925;29;20050;-78
2022/09/03 04:10:50;;;;;;;4.03;2.60;;;;;;;8.07;70.87;100666.50;4776578;29;20908;-77
2022/09/03 04:13:16;;;;;;;10.75;2.60;;;;;;;8.13;70.21;100650.19;4771360;29;20047;-79
2022/09/03 04:15:42;;;;;;;3.60;2.60;;;;;;;8.40;70.42;100664.38;4786918;29;20061;-81
2022/09/03 04:18:08;;;;;;;4.82;2.35;;;;;;;8.50;69.91;100657.63;4786792;29;20066;-80
2022/09/03 04:20:37;;;;;;;5.50;2.70;;;;;;;8.73;69.76;100666.59;4768810;29;20055;-79
2022/09/03 04:23:04;;;;;;;4.40;2.70;;;;;;;8.98;69.33;100660.84;4773524;29;20058;-79
2022/09/03 04:25:31;;;;;;;5.22;2.60;;;;;;;9.15;68.86;100666.22;4789271;29;20048;-78
2022/09/03 04:27:57;;;;;;;6.85;2.33;;;;;;;9.34;68.76;100668.16;4785776;29;20066;-77
2022/09/03 04:30:23;;;;;;;5.07;2.65;;;;;;;9.53;68.25;100662.25;4788584;29;20043;-79
2022/09/03 04:32:52;;;;;;;5.38;2.70;;;;;;;9.60;67.99;100649.31;4788773;29;20051;-79
2022/09/03 04:35:22;;;;;;;3.72;2.35;;;;;;;10.01;68.03;100666.09;4792383;29;20043;-79
2022/09/03 04:37:48;;;;;;;4.57;2.72;;;;;;;10.15;67.20;100653.19;4800227;29;20047;-80
2022/09/03 04:40:15;;;;;;;6.10;2.60;;;;;;;10.26;66.98;100642.88;4783963;29;20053;-77
2022/09/03 04:42:41;;;;;;;5.60;2.53;;;;;;;10.44;66.14;100660.34;4768679;29;20097;-79
2022/09/03 04:45:07;;;;;;;5.50;2.70;;;;;;;10.48;65.55;100656.03;4784116;29;20118;-78
2022/09/03 04:47:35;;;;;;;7.80;2.70;;;;;;;10.59;65.61;100658.69;4783292;29;20047;-78
2022/09/03 04:50:05;;;;;;;5.88;2.75;;;;;;;10.70;64.86;100668.28;4782962;29;20039;-77
2022/09/03 04:52:32;;;;;;;5.63;2.90;;;;;;;10.84;64.65;100668.34;4764323;29;20541;-80
2022/09/03 04:54:58;;;;;;;5.72;3.10;;;;;;;10.93;64.25;100674.44;4797222;29;20055;-79
2022/09/03 04:57:24;;;;;;;6.20;2.55;;;;;;;10.90;63.72;100667.47;4795681;29;20051;-80
2022/09/03 04:59:50;;;;;;;3.67;2.40;;;;;;;10.94;63.29;100674.44;4778423;29;20255;-79
2022/09/03 05:02:16;;;;;;;4.15;2.45;;;;;;;10.93;63.96;100651.88;4780897;29;20107;-80
2022/09/03 05:04:42;;;;;;;6.00;2.80;;;;;;;11.49;64.36;100648.50;4763600;29;20046;-80
2022/09/03 05:07:08;;;;;;;4.93;2.40;;;;;;;12.65;64.36;100654.47;4809013;29;20141;-78
2022/09/03 05:09:34;;;;;;;6.47;2.17;;;;;;;14.65;62.99;100628.47;4803049;29;20057;-79
2022/09/03 05:12:00;;;;;;;7.28;2.30;;;;;;;16.78;60.48;100641.59;4772352;29;20043;-79
2022/09/03 05:14:26;;;;;;;4.75;2.28;;;;;;;18.59;57.27;100636.28;4789592;29;20039;-79
2022/09/03 05:16:52;;;;;;;4.13;2.33;;;;;;;20.11;53.70;100622.69;4773296;29;20039;-80
2022/09/03 05:19:18;;;;;;;5.57;2.20;;;;;;;21.23;49.97;100627.34;4787808;29;20108;-80
2022/09/03 05:21:44;;;;;;;4.18;2.15;;;;;;;22.30;47.45;100624.66;4780244;29;20057;-79
2022/09/03 05:24:10;;;;;;;4.28;2.10;;;;;;;23.05;43.89;100630.06;4788102;29;20039;-79
2022/09/03 05:26:38;;;;;;;3.22;2.30;;;;;;;23.99;41.83;100617.47;4790348;29;20059;-79
2022/09/03 05:29:06;;;;;;;5.90;2.80;;;;;;;25.11;39.66;100608.81;4770816;29;20162;-78
2022/09/03 05:31:33;;;;;;;6.97;2.45;;;;;;;26.05;36.57;100629.09;4756451;29;20043;-79
2022/09/03 05:34:02;;;;;;;9.20;2.70;;;;;;;26.57;34.41;100621.53;4788047;29;20091;-79
2022/09/03 05:36:31;;;;;;;5.25;2.45;;;;;;;27.21;32.82;100621.00;4772712;29;20092;-80
2022/09/03 05:38:58;;;;;;;4.32;2.63;;;;;;;27.83;31.66;100622.25;4788359;29;20051;-81
2022/09/03 05:41:25;;;;;;;4.93;2.47;;;;;;;28.54;30.24;100614.63;4788985;29;20104;-79
2022/09/03 05:44:00;;;;;;;3.63;2.30;;;;;;;29.33;29.41;100617.91;4790052;29;20054;-84
2022/09/03 05:46:33;;;;;;;3.33;2.30;;;;;;;29.96;27.58;100617.63;4787930;29;20047;-82
2022/09/03 05:49:04;;;;;;;5.03;2.55;;;;;;;30.27;26.98;100621.44;4791679;29;20073;-79
2022/09/03 05:51:31;;;;;;;5.30;2.20;;;;;;;30.71;26.58;100620.72;4786310;29;20043;-80
2022/09/03 05:53:58;;;;;;;3.25;2.10;;;;;;;30.78;24.72;100619.25;4777338;29;20051;-79
2022/09/03 05:56:25;;;;;;;4.65;2.30;;;;;;;30.88;24.38;100627.41;4796236;29;20071;-80
2022/09/03 05:58:53;;;;;;;6.20;2.30;;;;;;;31.02;24.19;100628.94;4782369;29;20058;-79
2022/09/03 06:01:25;;;;;;;4.22;2.30;;;;;;;31.35;23.70;100617.22;4795963;29;20557;-79
2022/09/03 06:03:59;;;;;;;6.90;2.42;;;;;;;31.70;22.94;100636.72;4787592;29;20052;-78
2022/09/03 06:06:27;;;;;;;4.80;2.20;;;;;;;32.27;22.13;100620.28;4788743;29;20204;-80
2022/09/03 06:08:54;;;;;;;3.03;2.40;;;;;;;32.75;21.64;100624.09;4786077;29;20062;-79
2022/09/03 06:11:26;;;;;;;4.63;2.00;;;;;;;33.14;21.21;100631.41;4807505;29;20039;-79
2022/09/03 06:14:00;;;;;;;3.90;2.40;;;;;;;33.55;20.81;100629.44;4787861;29;20050;-80
2022/09/03 06:16:26;;;;;;;4.28;2.22;;;;;;;33.69;20.42;100632.69;4787666;29;20058;-80
2022/09/03 06:18:53;;;;;;;6.72;2.67;;;;;;;34.12;19.92;100620.53;4785676;29;20058;-79
2022/09/03 06:21:19;;;;;;;3.72;2.53;;;;;;;34.30;19.33;100626.00;4793053;29;20047;-79
2022/09/03 06:23:50;;;;;;;4.45;2.22;;;;;;;34.00;19.72;100624.41;4786627;29;20069;-80
2022/09/03 06:26:18;;;;;;;5.57;1.95;;;;;;;34.32;19.05;100640.19;4773302;29;20043;-79
2022/09/03 06:28:47;;;;;;;5.90;2.30;;;;;;;34.71;18.68;100628.38;4765444;29;20055;-79
2022/09/03 06:31:16;;;;;;;5.75;2.00;;;;;;;35.16;17.92;100642.88;4784690;29;20043;-80
2022/09/03 06:33:43;;;;;;;4.13;2.00;;;;;;;35.52;17.48;100623.09;4786459;29;20416;-80
2022/09/03 06:36:12;;;;;;;4.80;1.83;;;;;;;36.47;16.81;100635.91;4786064;29;20409;-79
2022/09/03 06:38:39;;;;;;;3.22;1.10;;;;;;;37.14;16.48;100624.22;4769528;29;20126;-81
2022/09/03 06:41:10;;;;;;;2.08;1.25;;;;;;;37.82;16.23;100635.75;4788506;29;20491;-81
2022/09/03 06:43:40;;;;;;;1.65;1.30;;;;;;;37.21;15.60;100632.53;4786149;29;20051;-81
2022/09/03 06:46:15;;;;;;;2.45;1.10;;;;;;;37.71;15.45;100638.81;4787109;29;20047;-82
2022/09/03 06:48:42;;;;;;;1.85;1.52;;;;;;;38.60;15.45;100643.34;4784814;29;20071;-81
2022/09/03 06:51:10;;;;;;;2.40;1.40;;;;;;;39.07;14.14;100651.56;4785405;29;20512;-82
2022/09/03 06:53:44;;;;;;;1.50;1.30;;;;;;;38.47;13.95;100640.34;4799981;29;20047;-80
2022/09/03 06:56:13;;;;;;;6.18;1.60;;;;;;;37.89;14.76;100640.47;4803542;29;20043;-81
2022/09/03 06:58:44;;;;;;;3.42;1.38;;;;;;;37.35;15.20;100653.56;4768136;29;20061;-81
2022/09/03 07:01:13;;;;;;;3.47;1.10;;;;;;;37.25;14.86;100638.47;4784868;29;20164;-81
2022/09/03 07:03:41;;;;;;;2.45;1.30;;;;;;;37.48;14.66;100633.25;4769714;29;20166;-81
2022/09/03 07:06:10;;;;;;;2.85;1.20;;;;;;;38.06;14.18;100639.47;4755123;29;20266;-80
2022/09/03 07:08:37;;;;;;;2.95;1.20;;;;;;;38.94;13.55;100634.00;4768793;29;20043;-80
2022/09/03 07:11:08;;;;;;;2.53;1.23;;;;;;;39.96;13.18;100631.09;4789341;29;20046;-79
2022/09/03 07:13:35;;;;;;;1.85;1.27;;;;;;;41.55;12.16;100635.03;4777841;29;20054;-81
2022/09/03 07:16:04;;;;;;;1.98;1.20;;;;;;;42.88;11.60;100623.13;4777211;29;20539;-81
2022/09/03 07:18:30;;;;;;;1.52;0.90;;;;;;;43.73;10.87;100632.63;4788293;29;20051;-79
2022/09/03 07:21:05;;;;;;;2.97;1.00;;;;;;;42.48;10.87;100623.00;4769387;29;20047;-81
2022/09/03 07:23:33;;;;;;;1.15;1.10;;;;;;;42.20;11.27;100626.63;4786474;29;20448;-80
2022/09/03 07:26:02;;;;;;;2.85;1.10;;;;;;;41.82;11.08;100625.16;4787504;29;20077;-82
2022/09/03 07:28:31;;;;;;;2.90;1.08;;;;;;;41.14;12.03;100641.19;4784737;29;20040;-81
2022/09/03 07:31:19;;;;;;;1.92;1.10;;;;;;;42.57;10.68;100638.16;4753508;29;20047;-80
2022/09/03 07:33:46;;;;;;;2.55;1.10;;;;;;;43.63;10.27;100640.44;4785702;29;20511;-79
2022/09/03 07:36:15;;;;;;;2.35;1.60;;;;;;;41.92;10.85;100629.41;4786332;29;20112;-81
2022/09/03 07:38:43;;;;;;;1.10;0.98;;;;;;;38.69;11.93;100647.72;4785187;29;20070;-81
2022/09/03 07:41:14;;;;;;;3.67;0.88;;;;;;;38.04;12.38;100646.94;4788071;29;20080;-80
2022/09/03 07:43:48;;;;;;;1.33;1.10;;;;;;;36.15;13.23;100642.81;4786422;29;20097;-79
2022/09/03 07:46:22;;;;;;;3.00;0.95;;;;;;;36.32;13.90;100633.75;4771053;29;20087;-81
2022/09/03 07:48:56;;;;;;;1.42;0.90;;;;;;;35.97;13.00;100634.78;4748650;29;20043;-81
2022/09/03 07:51:28;;;;;;;1.30;0.90;;;;;;;34.59;13.94;100634.97;4769070;29;20152;-79
2022/09/03 07:53:57;;;;;;;1.10;1.00;;;;;;;32.93;15.08;100635.09;4770143;29;20040;-80
2022/09/03 07:56:26;;;;;;;1.10;1.00;;;;;;;31.71;15.86;100646.53;4783768;29;20393;-80
2022/09/03 07:58:55;;;;;;;1.10;1.00;;;;;;;32.60;16.42;100631.69;4776380;29;20695;-79
2022/09/03 08:01:22;;;;;;;1.90;1.00;;;;;;;33.68;15.23;100637.25;4784231;29;20070;-80
2022/09/03 08:03:50;;;;;;;1.45;1.20;;;;;;;33.24;14.99;100628.72;4769891;29;20050;-80
2022/09/03 08:06:19;;;;;;;2.53;1.20;;;;;;;32.74;16.30;100633.16;4789947;29;20078;-80
2022/09/03 08:08:55;;;;;;;1.42;1.10;;;;;;;34.58;14.88;100623.34;4789325;29;20129;-77
2022/09/03 08:11:21;;;;;;;1.60;1.00;;;;;;;35.03;14.50;100613.53;4771685;29;20047;-79
2022/09/03 08:14:00;;;;;;;2.28;1.30;;;;;;;36.97;14.05;100623.34;4773023;29;20047;-79
2022/09/03 08:16:30;;;;;;;2.08;1.17;;;;;;;37.81;13.24;100628.63;4773623;29;20042;-78
2022/09/03 08:18:56;;;;;;;2.25;1.30;;;;;;;37.94;12.65;100619.13;4788240;29;20049;-80
2022/09/03 08:21:24;;;;;;;1.83;1.50;;;;;;;37.67;12.85;100621.16;4787081;29;20559;-80
2022/09/03 08:23:53;;;;;;;2.22;1.23;;;;;;;38.24;12.61;100616.66;4788692;29;20051;-79
2022/09/03 08:26:21;;;;;;;4.95;1.50;;;;;;;39.56;11.77;100621.28;4789951;29;20124;-80
2022/09/03 08:28:48;;;;;;;1.98;1.20;;;;;;;39.99;11.23;100606.22;4774016;29;20067;-78
2022/09/03 08:31:17;;;;;;;2.30;1.17;;;;;;;40.91;11.15;100607.56;4773117;29;20054;-78
2022/09/03 08:33:55;;;;;;;3.63;1.30;;;;;;;42.05;10.46;100604.06;4759037;29;20092;-78
2022/09/03 08:36:26;;;;;;;2.42;0.88;;;;;;;42.74;10.14;100602.22;4773408;29;20108;-80
2022/09/03 08:38:55;;;;;;;2.15;1.10;;;;;;;43.17;10.00;100612.81;4786920;29;20047;-80
2022/09/03 08:41:38;;;;;;;1.35;1.20;;;;;;;42.28;9.12;100612.78;4788872;29;20130;-81
2022/09/03 08:44:27;;;;;;;3.13;1.33;;;;;;;40.86;10.15;100614.66;4795914;29;20051;-80
2022/09/03 08:46:59;;;;;;;2.65;1.65;;;;;;;40.88;9.87;100607.94;4793432;29;20126;-80
2022/09/03 08:49:57;;;;;;;1.50;1.40;;;;;;;41.24;9.68;100607.06;4774408;29;20059;-80
2022/09/03 08:52:32;;;;;;;1.98;1.27;;;;;;;42.37;9.42;100599.84;4770217;29;20039;-80
2022/09/03 08:55:13;;;;;;;1.30;1.17;;;;;;;39.56;10.09;100618.56;4783022;29;20058;-78
2022/09/03 08:58:12;;;;;;;2.08;1.25;;;;;;;37.80;11.03;100607.94;4779583;29;20047;-81
2022/09/03 09:01:00;;;;;;;2.65;1.20;;;;;;;37.02;11.61;100607.44;4794867;29;20077;-78
2022/09/03 09:03:50;;;;;;;3.17;1.10;;;;;;;37.36;11.32;100602.88;4789037;29;20046;-79
2022/09/03 09:06:42;;;;;;;1.33;1.05;;;;;;;37.00;11.73;100614.03;4773061;29;20038;-77
2022/09/03 09:09:43;;;;;;;1.10;1.00;;;;;;;37.87;11.28;100610.78;4805751;29;20084;-79
2022/09/03 09:12:27;;;;;;;1.02;0.90;;;;;;;35.89;11.61;100613.88;4790805;29;20051;-78
2022/09/03 09:15:18;;;;;;;1.05;0.90;;;;;;;36.75;11.65;100611.25;4769740;30;20058;-79
2022/09/03 09:18:12;;;;;;;2.55;1.25;;;;;;;36.98;11.77;100605.22;4807152;29;20188;-81
2022/09/03 09:20:41;;;;;;;1.10;1.00;;;;;;;37.63;11.15;100601.69;4797882;29;20092;-77
2022/09/03 09:23:25;;;;;;;1.10;1.00;;;;;;;38.86;11.19;100595.97;4741799;30;20142;-80
2022/09/03 09:25:54;;;;;;;1.60;1.10;;;;;;;40.75;10.13;100596.91;4771037;29;20058;-81
2022/09/03 09:28:21;;;;;;;2.25;0.90;;;;;;;41.40;9.21;100600.44;4779137;29;20112;-78
2022/09/03 09:31:06;;;;;;;2.20;1.10;;;;;;;39.64;9.92;100584.94;4789446;29;20115;-79
2022/09/03 09:33:33;;;;;;;1.83;1.10;;;;;;;37.83;10.92;100601.28;4787409;29;20039;-77
2022/09/03 09:36:07;;;;;;;3.03;1.35;;;;;;;38.57;11.06;100598.34;4788678;29;20051;-81
2022/09/03 09:38:36;;;;;;;2.55;1.02;;;;;;;39.28;10.62;100593.78;4785001;29;20116;-78
2022/09/03 09:41:14;;;;;;;2.03;0.82;;;;;;;38.28;10.97;100607.13;4748568;29;20416;-78
2022/09/03 09:43:41;;;;;;;3.20;0.88;;;;;;;37.22;11.34;100602.53;4739685;30;20047;-79
2022/09/03 09:46:24;;;;;;;2.10;1.02;;;;;;;36.26;11.76;100599.22;4762950;29;20050;-78
2022/09/03 09:48:54;;;;;;;1.83;1.10;;;;;;;34.64;12.92;100606.53;4791947;29;20071;-79
2022/09/03 09:51:25;;;;;;;1.00;0.85;;;;;;;33.39;13.33;100597.66;4789766;29;20420;-77
2022/09/03 09:54:15;;;;;;;1.77;0.77;;;;;;;31.42;13.90;100614.91;4757477;30;20206;-77
2022/09/03 09:56:43;;;;;;;0.70;0.70;;;;;;;30.46;14.56;100602.03;4783279;29;20133;-79
2022/09/03 09:59:11;;;;;;;2.78;1.05;;;;;;;29.56;15.29;100613.50;4788927;29;20519;-80
2022/09/03 10:01:44;;;;;;;2.72;0.93;;;;;;;28.56;16.09;100598.44;4785986;29;20059;-80
2022/09/03 10:04:20;;;;;;;1.65;1.00;;;;;;;28.32;16.58;100617.97;4788284;30;20134;-78
2022/09/03 10:06:55;;;;;;;3.53;1.15;;;;;;;27.54;17.29;100613.53;4798818;29;20059;-79
2022/09/03 10:09:25;;;;;;;1.30;0.95;;;;;;;29.17;17.44;100619.03;4804009;29;20043;-80
2022/09/03 10:12:04;;;;;;;3.10;1.58;;;;;;;31.43;16.05;100600.47;4777234;29;20046;-78
2022/09/03 10:14:40;;;;;;;2.28;1.23;;;;;;;30.82;15.41;100607.25;4789644;29;20130;-78
2022/09/03 10:17:28;;;;;;;1.88;1.20;;;;;;;31.48;16.05;100592.84;4788412;29;20076;-78
2022/09/03 10:20:32;;;;;;;1.17;1.08;;;;;;;32.83;15.22;100591.97;4783245;29;20400;-77
2022/09/03 10:23:24;;;;;;;2.83;1.30;;;;;;;34.97;14.11;100581.72;4785469;29;20519;-79
2022/09/03 10:26:03;;;;;;;0.95;0.90;;;;;;;36.18;13.00;100580.22;4784876;29;20038;-80
2022/09/03 10:28:30;;;;;;;3.15;1.30;;;;;;;36.81;12.34;100566.38;4787552;29;20520;-80
2022/09/03 10:31:05;;;;;;;1.80;1.10;;;;;;;36.90;11.88;100573.50;4787166;29;20047;-80
2022/09/03 10:33:38;;;;;;;4.05;1.00;;;;;;;37.02;12.19;100574.03;4786952;29;20043;-80
2022/09/03 10:36:33;;;;;;;1.17;0.90;;;;;;;36.52;11.98;100582.09;4780375;29;20052;-79
2022/09/03 10:39:13;;;;;;;4.32;0.75;;;;;;;35.85;12.52;100577.34;4785574;29;20149;-80
2022/09/03 10:41:50;;;;;;;0.80;0.80;;;;;;;33.79;13.07;100584.97;4786294;29;20451;-79
2022/09/03 10:44:34;;;;;;;1.90;0.90;;;;;;;32.08;14.34;100589.56;4783495;29;20128;-81
2022/09/03 10:47:18;;;;;;;1.60;0.90;;;;;;;30.38;15.08;100600.94;4785381;29;20090;-80
2022/09/03 10:50:03;;;;;;;1.33;1.00;;;;;;;29.08;15.91;100592.94;4783719;29;20043;-79
2022/09/03 10:52:35;;;;;;;2.03;1.30;;;;;;;28.49;16.49;100592.69;4784606;29;20099;-79
2022/09/03 10:55:08;;;;;;;1.45;1.08;;;;;;;28.04;16.93;100594.97;4784247;29;20043;-78
2022/09/03 10:57:43;;;;;;;3.30;1.20;;;;;;;27.61;17.25;100596.97;4784331;29;20055;-78
2022/09/03 11:00:12;;;;;;;2.53;1.30;;;;;;;26.90;17.73;100591.84;4783280;29;20054;-79
2022/09/03 11:02:50;;;;;;;1.55;1.02;;;;;;;26.14;18.51;100604.59;4770992;29;20136;-79
2022/09/03 11:05:55;;;;;;;1.65;0.75;;;;;;;25.59;18.92;100602.56;4786841;29;20124;-79
2022/09/03 11:08:28;;;;;;;1.90;1.00;;;;;;;25.26;19.73;100607.06;4784821;29;20058;-82
2022/09/03 11:11:03;;;;;;;1.00;0.90;;;;;;;25.08;19.93;100595.66;4768426;29;20254;-78
2022/09/03 11:13:40;;;;;;;0.95;0.82;;;;;;;24.56;19.84;100605.63;4755092;29;20071;-79
2022/09/03 11:16:51;;;;;;;3.42;0.75;;;;;;;23.80;20.16;100603.41;4785017;29;20530;-80
2022/09/03 11:19:24;;;;;;;0.73;0.73;;;;;;;23.14;21.37;100600.44;4762293;29;20059;-78
2022/09/03 11:21:51;;;;;;;4.00;0.77;;;;;;;22.83;21.48;100609.88;4787423;29;20054;-79
2022/09/03 11:24:22;;;;;;;3.10;1.20;;;;;;;22.41;22.46;100611.75;4790503;29;20047;-78
2022/09/03 11:26:56;;;;;;;1.02;0.93;;;;;;;22.11;22.69;100617.53;4778566;29;20107;-78
2022/09/03 11:29:50;;;;;;;1.23;1.10;;;;;;;21.82;23.34;100622.28;4802454;29;20065;-79
2022/09/03 11:32:39;;;;;;;2.00;1.00;;;;;;;21.67;23.52;100619.38;4781784;29;20123;-79
2022/09/03 11:35:24;;;;;;;1.63;1.13;;;;;;;21.71;23.64;100606.88;4736595;30;20506;-82
2022/09/03 11:37:59;;;;;;;2.30;1.20;;;;;;;21.92;23.60;100606.88;4768019;29;20053;-80
2022/09/03 11:40:35;;;;;;;1.90;1.00;;;;;;;21.80;23.56;100605.59;4771622;29;20111;-81
2022/09/03 11:43:07;;;;;;;1.58;1.20;;;;;;;21.52;24.20;100601.44;4762680;30;20047;-81
2022/09/03 11:45:36;;;;;;;2.65;1.05;;;;;;;21.23;24.20;100603.53;4775444;29;20051;-77
2022/09/03 11:48:16;;;;;;;1.63;0.98;;;;;;;20.88;24.33;100588.16;4779081;29;20122;-80
2022/09/03 11:50:53;;;;;;;1.35;1.02;;;;;;;21.01;24.42;100603.50;4794149;29;20074;-78
2022/09/03 11:53:19;;;;;;;2.85;1.10;;;;;;;21.04;24.69;100592.81;4791263;29;20049;-79
2022/09/03 11:55:48;;;;;;;2.15;1.02;;;;;;;21.18;24.20;100592.25;4791480;29;20057;-78
2022/09/03 11:58:33;;;;;;;1.15;0.90;;;;;;;21.19;24.69;100597.47;4799548;29;20047;-79
2022/09/03 12:01:02;;;;;;;2.47;0.88;;;;;;;21.01;24.68;100577.06;4803254;29;20138;-78
2022/09/03 12:03:58;;;;;;;2.70;1.00;;;;;;;20.61;24.90;100598.00;4807939;29;20512;-80